Terminal Aerodrome Forecast
Issued by NWS

Home | Current Version | Previous Version | Text Only | Print | Product List | Glossary On
Versions: 1 2 3 4 5 6 7 8 9 10 11 12 13 14
000
FTUS42 KMLB 201700 RRA
TAFFPR
TAF
KFPR 201745Z 2018/2112 18006KT P6SM SCT040
     FM201900 13008KT P6SM SCT080 BKN250
     FM210400 18003KT P6SM SCT060 OVC120=

USA.gov is the U.S. government's official web portal to all federal, state and local government web resources and services.